Time;durP1;ratioP1;P1;durP2;ratioP2;P2;SDS_P1;SDS_P2;PMS_P1;PMS_P2;Temp;Humidity;BMP_temperature;BMP_pressure;BME280_temperature;BME280_humidity;BME280_pressure;Samples;Min_cycle;Max_cycle;Signal;HPM_P1;HPM_P2
2023/12/13 00:00:40;;;;;;;82.90;43.25;;;;;;;6.83;80.99;98169.25;4515254;31;34045;-89
2023/12/13 00:03:08;;;;;;;57.83;35.30;;;;;;;6.71;82.27;98166.53;4505392;31;34710;-88
2023/12/13 00:05:36;;;;;;;197.77;42.42;;;;;;;6.75;80.50;98163.16;4499889;31;33845;-87
2023/12/13 00:08:03;;;;;;;34.97;27.60;;;;;;;6.94;79.72;98148.75;4499352;31;34706;-89
2023/12/13 00:10:31;;;;;;;450.27;73.43;;;;;;;6.76;79.16;98154.56;4501430;31;33421;-89
2023/12/13 00:12:58;;;;;;;163.70;47.65;;;;;;;6.78;79.82;98152.00;4505564;31;33671;-89
2023/12/13 00:15:26;;;;;;;109.82;49.53;;;;;;;6.85;80.06;98151.22;4500589;31;33571;-91
2023/12/13 00:17:53;;;;;;;186.27;60.92;;;;;;;6.72;82.51;98139.06;4514827;31;34803;-88
2023/12/13 00:20:21;;;;;;;301.88;78.82;;;;;;;6.85;82.62;98142.63;4507302;31;34976;-88
2023/12/13 00:22:48;;;;;;;76.30;44.55;;;;;;;6.46;86.12;98123.31;4499210;31;33622;-89
2023/12/13 00:25:16;;;;;;;216.70;58.55;;;;;;;6.56;85.43;98117.44;4511746;31;34531;-89
2023/12/13 00:27:44;;;;;;;215.37;42.15;;;;;;;6.71;83.34;98109.00;4500349;31;34103;-88
2023/12/13 00:30:12;;;;;;;354.40;57.15;;;;;;;6.51;80.85;98121.62;4485654;31;34163;-93
2023/12/13 00:32:41;;;;;;;245.65;60.80;;;;;;;6.65;80.98;98120.09;4501073;31;33108;-89
2023/12/13 00:35:09;;;;;;;198.43;63.60;;;;;;;6.52;84.83;98120.81;4504941;31;34695;-92
2023/12/13 00:37:36;;;;;;;296.95;66.60;;;;;;;6.48;86.56;98111.31;4499632;31;34025;-89
2023/12/13 00:40:06;;;;;;;236.50;53.90;;;;;;;6.44;86.45;98099.22;4513680;31;33850;-88
2023/12/13 00:42:33;;;;;;;233.32;42.15;;;;;;;6.38;84.25;98109.47;4514405;31;33538;-90
2023/12/13 00:45:01;;;;;;;172.43;41.63;;;;;;;6.57;82.25;98111.41;4513575;31;33603;-90
2023/12/13 00:47:28;;;;;;;607.92;83.20;;;;;;;6.80;80.61;98109.97;4511565;31;33714;-90
2023/12/13 00:49:56;;;;;;;335.83;54.72;;;;;;;6.78;81.83;98105.63;4508755;31;34872;-90
2023/12/13 00:52:23;;;;;;;451.67;76.40;;;;;;;6.88;81.59;98111.75;4499160;31;34481;-90
2023/12/13 00:54:51;;;;;;;435.55;75.05;;;;;;;6.98;82.51;98111.00;4486154;31;33647;-89
2023/12/13 00:57:19;;;;;;;186.65;53.95;;;;;;;6.61;85.15;98110.59;4511442;31;34019;-90
2023/12/13 00:59:46;;;;;;;710.35;112.80;;;;;;;6.80;84.88;98104.81;4514872;31;33835;-90
2023/12/13 01:02:15;;;;;;;363.40;70.85;;;;;;;6.95;84.36;98104.09;4512101;31;34453;-89
2023/12/13 01:04:44;;;;;;;717.97;113.68;;;;;;;6.83;84.10;98098.84;4507789;31;34223;-91
2023/12/13 01:07:12;;;;;;;532.10;93.32;;;;;;;6.67;84.90;98100.38;4510205;31;33784;-90
2023/12/13 01:09:40;;;;;;;249.27;57.50;;;;;;;6.77;84.65;98094.47;4512127;31;34745;-90
2023/12/13 01:12:07;;;;;;;344.85;65.28;;;;;;;6.88;83.30;98086.00;4509938;31;32963;-91
2023/12/13 01:14:35;;;;;;;411.15;72.65;;;;;;;7.10;82.70;98077.63;4514488;31;33776;-91
2023/12/13 01:17:03;;;;;;;55.95;39.78;;;;;;;6.44;85.69;98074.38;4502548;31;33864;-89
2023/12/13 01:19:30;;;;;;;394.23;79.93;;;;;;;6.79;83.65;98067.03;4499545;31;34126;-88
2023/12/13 01:21:57;;;;;;;173.73;52.05;;;;;;;6.48;86.56;98065.84;4511699;31;33625;-88
2023/12/13 01:24:25;;;;;;;91.85;43.00;;;;;;;6.75;84.00;98051.53;4500337;31;34224;-88
2023/12/13 01:26:53;;;;;;;251.32;59.95;;;;;;;6.85;83.62;98055.03;4505063;31;34554;-89
2023/12/13 01:29:21;;;;;;;267.15;66.03;;;;;;;6.72;84.72;98047.19;4513053;31;34801;-88
2023/12/13 01:31:49;;;;;;;59.67;36.00;;;;;;;6.75;84.07;98049.81;4504622;31;33507;-88
2023/12/13 01:34:16;;;;;;;457.38;75.62;;;;;;;6.69;82.61;98049.75;4498844;31;34670;-88
2023/12/13 01:36:44;;;;;;;182.60;57.10;;;;;;;6.74;82.18;98047.19;4509964;31;34032;-87
2023/12/13 01:39:13;;;;;;;294.95;69.65;;;;;;;6.73;84.19;98041.19;4512996;31;34633;-91
2023/12/13 01:41:42;;;;;;;241.80;60.90;;;;;;;6.79;84.69;98038.69;4485306;31;32798;-86
2023/12/13 01:44:10;;;;;;;234.20;58.58;;;;;;;6.50;86.74;98042.66;4498784;31;33453;-88
2023/12/13 01:46:39;;;;;;;639.50;108.65;;;;;;;6.28;87.95;98032.13;4498731;31;33730;-87
2023/12/13 01:49:07;;;;;;;399.52;75.50;;;;;;;6.43;87.79;98035.72;4487506;31;34200;-88
2023/12/13 01:51:35;;;;;;;484.83;82.03;;;;;;;6.40;87.21;98021.09;4501054;31;33300;-87
2023/12/13 01:54:04;;;;;;;402.65;75.95;;;;;;;6.65;85.96;98011.94;4500112;31;33762;-87
2023/12/13 01:56:31;;;;;;;355.73;73.07;;;;;;;6.44;87.07;98004.87;4487870;31;34781;-89
2023/12/13 01:58:59;;;;;;;233.27;58.15;;;;;;;6.48;86.53;98010.91;4514261;31;33861;-87
2023/12/13 02:01:28;;;;;;;342.45;71.25;;;;;;;6.14;89.04;98005.41;4486067;31;33465;-88
2023/12/13 02:03:56;;;;;;;481.73;89.80;;;;;;;6.00;88.74;97997.50;4487420;31;34605;-87
2023/12/13 02:06:24;;;;;;;164.60;51.80;;;;;;;6.22;87.87;97984.88;4495589;31;34031;-87
2023/12/13 02:08:51;;;;;;;97.20;44.75;;;;;;;6.22;87.76;97985.75;4507376;31;34563;-87
2023/12/13 02:11:19;;;;;;;116.22;47.38;;;;;;;6.30;88.81;97973.81;4499782;31;34483;-93
2023/12/13 02:13:47;;;;;;;178.55;55.17;;;;;;;6.18;89.44;97973.69;4499382;31;33546;-90
2023/12/13 02:16:14;;;;;;;111.45;48.83;;;;;;;6.21;88.49;97973.75;4496536;31;34270;-94
2023/12/13 02:18:42;;;;;;;101.97;44.00;;;;;;;6.37;86.96;97966.16;4513941;31;34713;-87
2023/12/13 02:21:10;;;;;;;100.57;45.08;;;;;;;6.01;89.80;97964.91;4512850;31;34456;-88
2023/12/13 02:23:37;;;;;;;99.62;44.13;;;;;;;6.07;89.89;97965.84;4505635;31;33546;-88
2023/12/13 02:26:07;;;;;;;96.80;44.35;;;;;;;6.01;90.22;97960.63;4500368;31;34601;-87
2023/12/13 02:28:35;;;;;;;80.22;41.88;;;;;;;5.93;90.18;97956.25;4484614;31;34164;-87
2023/12/13 02:31:03;;;;;;;71.20;40.38;;;;;;;5.90;90.91;97951.88;4504856;31;33738;-87
2023/12/13 02:33:31;;;;;;;126.60;48.05;;;;;;;6.03;89.00;97952.94;4498296;31;33466;-88
2023/12/13 02:36:00;;;;;;;78.22;41.05;;;;;;;6.22;88.69;97944.56;4512456;31;36428;-86
2023/12/13 02:38:28;;;;;;;54.45;36.15;;;;;;;6.12;88.99;97936.72;4499526;31;33044;-87
2023/12/13 02:40:55;;;;;;;82.45;40.28;;;;;;;6.05;89.57;97936.66;4512114;31;33597;-88
2023/12/13 02:43:23;;;;;;;73.37;37.80;;;;;;;6.00;89.83;97930.59;4501116;31;33913;-87
2023/12/13 02:45:51;;;;;;;180.80;50.08;;;;;;;5.84;90.00;97937.25;4505184;31;34538;-93
2023/12/13 02:48:18;;;;;;;66.85;38.28;;;;;;;5.99;90.00;97933.19;4512016;31;34175;-92
2023/12/13 02:50:48;;;;;;;129.52;41.97;;;;;;;6.00;89.17;97922.03;4513629;31;33768;-88
2023/12/13 02:53:16;;;;;;;271.15;57.33;;;;;;;6.14;88.11;97930.78;4499797;31;34329;-92
2023/12/13 02:55:43;;;;;;;291.85;65.95;;;;;;;6.01;88.09;97919.47;4512682;31;34912;-91
2023/12/13 02:58:11;;;;;;;141.18;44.22;;;;;;;6.19;86.44;97907.66;4509453;31;34809;-92
2023/12/13 03:00:38;;;;;;;117.85;43.87;;;;;;;6.42;85.16;97913.00;4506430;31;33579;-87
2023/12/13 03:03:08;;;;;;;45.28;31.73;;;;;;;6.22;85.73;97921.41;4495536;31;33590;-89
2023/12/13 03:05:35;;;;;;;54.25;33.47;;;;;;;6.00;87.26;97929.75;4504654;31;34151;-92
2023/12/13 03:08:03;;;;;;;47.55;32.20;;;;;;;5.90;86.84;97926.16;4509968;31;34219;-89
2023/12/13 03:10:31;;;;;;;41.25;32.03;;;;;;;5.69;88.38;97931.09;4513937;31;34465;-89
2023/12/13 03:12:59;;;;;;;40.90;28.95;;;;;;;5.99;87.90;97930.59;4512768;31;33628;-88
2023/12/13 03:15:26;;;;;;;37.15;27.98;;;;;;;6.05;86.71;97921.22;4512055;31;34147;-88
2023/12/13 03:17:54;;;;;;;32.60;26.25;;;;;;;6.22;85.65;97911.13;4511119;31;34586;-91
2023/12/13 03:20:22;;;;;;;30.10;24.10;;;;;;;6.43;84.22;97905.28;4515776;31;33564;-93
2023/12/13 03:22:49;;;;;;;28.90;23.02;;;;;;;6.32;84.54;97905.19;4503679;31;34214;-89
2023/12/13 03:25:17;;;;;;;30.05;23.70;;;;;;;6.40;84.69;97906.97;4503980;31;33790;-90
2023/12/13 03:27:45;;;;;;;25.83;20.20;;;;;;;6.65;83.78;97897.75;4502632;31;34536;-89
2023/12/13 03:30:12;;;;;;;22.08;16.40;;;;;;;6.31;84.27;97903.47;4515573;31;33380;-90
2023/12/13 03:32:40;;;;;;;16.80;14.77;;;;;;;6.60;83.06;97895.16;4500133;31;33306;-88
2023/12/13 03:35:08;;;;;;;18.62;15.00;;;;;;;6.74;82.40;97890.09;4503148;31;33829;-88
2023/12/13 03:37:35;;;;;;;14.25;12.25;;;;;;;6.48;83.14;97892.47;4494750;31;34040;-89
2023/12/13 03:40:04;;;;;;;15.05;12.32;;;;;;;6.44;83.44;97893.28;4512361;31;33199;-88
2023/12/13 03:42:31;;;;;;;14.90;11.50;;;;;;;6.24;84.69;97887.97;4514881;31;34285;-89
2023/12/13 03:44:59;;;;;;;12.18;10.57;;;;;;;6.44;84.47;97876.16;4491995;31;33775;-89
2023/12/13 03:47:26;;;;;;;12.37;10.05;;;;;;;6.24;84.54;97878.53;4511458;31;33871;-89
2023/12/13 03:49:54;;;;;;;11.93;10.65;;;;;;;6.01;86.16;97877.44;4502409;31;34357;-90
2023/12/13 03:52:22;;;;;;;12.52;9.82;;;;;;;6.28;84.72;97867.41;4512458;31;34622;-90
2023/12/13 03:54:49;;;;;;;13.98;11.60;;;;;;;6.25;84.88;97858.78;4503929;31;34538;-90
2023/12/13 03:57:17;;;;;;;12.18;10.65;;;;;;;5.93;86.77;97843.94;4499418;31;34621;-89
2023/12/13 03:59:44;;;;;;;13.68;11.63;;;;;;;5.93;86.98;97840.50;4513000;31;33660;-89
2023/12/13 04:02:12;;;;;;;13.55;11.80;;;;;;;6.07;86.46;97851.78;4511381;31;33613;-89
2023/12/13 04:04:39;;;;;;;13.40;11.88;;;;;;;6.37;84.53;97840.03;4499614;31;33870;-92
2023/12/13 04:07:08;;;;;;;11.85;10.65;;;;;;;6.23;85.17;97851.06;4499207;31;34170;-90
2023/12/13 04:09:35;;;;;;;14.20;12.30;;;;;;;6.30;83.68;97852.00;4513041;31;33242;-89
2023/12/13 04:12:04;;;;;;;14.20;12.68;;;;;;;6.14;84.22;97851.00;4508548;31;34746;-89
2023/12/13 04:14:31;;;;;;;15.07;12.10;;;;;;;6.36;83.09;97843.44;4499526;31;33952;-89
2023/12/13 04:16:58;;;;;;;14.57;12.70;;;;;;;6.33;82.65;97845.16;4499319;31;34385;-89
2023/12/13 04:19:26;;;;;;;14.35;11.77;;;;;;;6.42;82.73;97841.78;4499872;31;34432;-90
2023/12/13 04:21:53;;;;;;;15.52;12.88;;;;;;;6.30;82.86;97839.13;4509940;31;34263;-90
2023/12/13 04:24:21;;;;;;;14.55;13.02;;;;;;;6.55;82.33;97841.03;4504288;31;33926;-90
2023/12/13 04:26:49;;;;;;;16.55;14.40;;;;;;;6.38;82.56;97844.34;4499310;31;33726;-90
2023/12/13 04:29:16;;;;;;;17.62;14.52;;;;;;;6.35;83.05;97837.44;4498811;31;33726;-92
2023/12/13 04:31:43;;;;;;;16.83;14.07;;;;;;;6.07;84.51;97836.34;4499492;31;34318;-91
2023/12/13 04:34:11;;;;;;;16.15;14.40;;;;;;;6.30;82.65;97828.81;4489451;31;34880;-90
2023/12/13 04:36:39;;;;;;;16.10;14.13;;;;;;;6.28;82.64;97823.66;4499883;31;34124;-90
2023/12/13 04:39:06;;;;;;;14.90;12.40;;;;;;;6.27;82.55;97824.50;4515178;31;34006;-90
2023/12/13 04:41:38;;;;;;;12.63;11.30;;;;;;;6.41;81.85;97823.78;4515111;31;34748;-89
2023/12/13 04:44:08;;;;;;;10.98;9.68;;;;;;;6.40;82.53;97825.44;4501481;31;34763;-89
2023/12/13 04:46:36;;;;;;;12.25;10.60;;;;;;;6.44;82.43;97822.09;4514441;31;33912;-92
2023/12/13 04:49:03;;;;;;;11.70;10.30;;;;;;;6.44;81.92;97822.09;4515071;31;34502;-90
2023/12/13 04:51:31;;;;;;;11.02;9.57;;;;;;;5.99;83.99;97827.72;4514373;31;33559;-92
2023/12/13 04:53:58;;;;;;;10.85;9.07;;;;;;;6.36;82.41;97828.00;4515017;31;34582;-91
2023/12/13 04:56:26;;;;;;;9.75;8.23;;;;;;;6.52;81.42;97829.88;4500197;31;33887;-91
2023/12/13 04:58:53;;;;;;;10.52;7.87;;;;;;;6.29;82.45;97838.25;4497178;31;34323;-92
2023/12/13 05:01:21;;;;;;;9.73;7.03;;;;;;;6.66;80.13;97846.25;4498267;31;34825;-91
2023/12/13 05:03:49;;;;;;;8.60;7.53;;;;;;;6.79;79.82;97842.91;4498308;31;34943;-92
2023/12/13 05:06:17;;;;;;;8.15;6.72;;;;;;;6.89;79.58;97840.38;4498946;31;33767;-92
2023/12/13 05:08:46;;;;;;;7.72;5.97;;;;;;;7.03;78.93;97839.62;4498950;31;34344;-92
2023/12/13 05:11:13;;;;;;;6.47;5.22;;;;;;;6.96;78.52;97830.13;4485085;31;34552;-92
2023/12/13 05:13:41;;;;;;;7.05;5.28;;;;;;;7.06;78.24;97833.62;4497829;31;34841;-93
2023/12/13 05:16:09;;;;;;;6.10;4.87;;;;;;;7.07;77.49;97837.91;4498509;31;34185;-90
2023/12/13 05:18:36;;;;;;;7.00;5.15;;;;;;;7.04;77.14;97837.91;4479710;31;33211;-91
2023/12/13 05:21:04;;;;;;;6.93;4.93;;;;;;;6.96;77.55;97843.00;4491614;31;33709;-91
2023/12/13 05:23:32;;;;;;;10.45;8.10;;;;;;;6.95;75.93;97832.72;4487002;31;35263;-90
2023/12/13 05:25:59;;;;;;;10.50;8.05;;;;;;;6.87;77.36;97837.81;4499561;31;34089;-91
2023/12/13 05:28:28;;;;;;;9.77;6.97;;;;;;;6.90;77.89;97831.81;4514953;31;33594;-90
2023/12/13 05:30:56;;;;;;;8.13;6.12;;;;;;;7.15;77.20;97831.09;4495103;31;33750;-90
2023/12/13 05:33:24;;;;;;;11.15;7.37;;;;;;;6.48;78.42;97826.41;4499929;31;34113;-90
2023/12/13 05:35:52;;;;;;;9.05;6.30;;;;;;;6.58;78.33;97825.59;4502038;31;33503;-91
2023/12/13 05:38:19;;;;;;;9.40;6.07;;;;;;;6.48;78.03;97822.97;4502695;31;33291;-90
2023/12/13 05:40:47;;;;;;;7.85;4.65;;;;;;;6.68;77.53;97821.37;4510039;31;33825;-89
2023/12/13 05:43:15;;;;;;;6.47;4.90;;;;;;;6.71;76.90;97815.41;4504495;31;34160;-90
2023/12/13 05:45:44;;;;;;;8.73;6.50;;;;;;;6.43;77.59;97804.88;4505594;31;34063;-92
2023/12/13 05:48:12;;;;;;;8.48;4.65;;;;;;;6.26;79.04;97804.78;4497507;31;33649;-92
2023/12/13 05:50:40;;;;;;;6.07;4.03;;;;;;;6.54;77.07;97798.09;4496154;31;33564;-90
2023/12/13 05:53:08;;;;;;;5.65;4.32;;;;;;;6.70;76.37;97799.06;4497561;31;34112;-89
2023/12/13 05:55:35;;;;;;;7.03;5.43;;;;;;;6.56;75.91;97804.13;4500462;31;35001;-91
2023/12/13 05:58:03;;;;;;;8.40;4.87;;;;;;;6.49;76.29;97806.66;4512008;31;33264;-89
2023/12/13 06:00:31;;;;;;;5.60;4.70;;;;;;;6.47;76.11;97798.06;4516354;31;33085;-95
2023/12/13 06:03:19;;;;;;;38.78;7.03;;;;;;;6.61;75.79;97798.16;4473721;31;34409;-94
2023/12/13 06:05:47;;;;;;;9.00;6.97;;;;;;;6.57;76.08;97797.28;4489209;31;33622;-93
2023/12/13 06:08:14;;;;;;;8.80;4.25;;;;;;;6.32;77.08;97794.50;4499772;31;33959;-92
2023/12/13 06:10:42;;;;;;;11.57;6.07;;;;;;;6.54;76.59;97795.53;4513214;31;33674;-94
2023/12/13 06:13:10;;;;;;;10.35;5.00;;;;;;;6.57;76.58;97798.13;4480030;31;34750;-90
2023/12/13 06:15:38;;;;;;;6.78;4.32;;;;;;;6.68;76.04;97785.31;4484370;31;34097;-93
2023/12/13 06:18:06;;;;;;;13.20;5.07;;;;;;;6.58;75.74;97768.94;4498487;31;33986;-92
2023/12/13 06:20:33;;;;;;;4.85;3.67;;;;;;;6.65;75.31;97774.16;4498648;31;33752;-93
2023/12/13 06:23:01;;;;;;;8.85;3.87;;;;;;;6.74;74.50;97771.59;4498608;31;33888;-92
2023/12/13 06:25:29;;;;;;;38.67;6.47;;;;;;;6.61;74.55;97775.84;4498359;31;34392;-91
2023/12/13 06:27:57;;;;;;;9.15;4.50;;;;;;;6.61;74.89;97769.81;4484125;31;33199;-92
2023/12/13 06:30:25;;;;;;;13.52;3.75;;;;;;;6.72;74.01;97774.19;4498415;31;33452;-91
2023/12/13 06:32:52;;;;;;;4.70;3.40;;;;;;;6.68;73.48;97782.75;4484119;31;33702;-92
2023/12/13 06:35:20;;;;;;;9.07;3.62;;;;;;;6.55;73.81;97783.50;4497154;31;33011;-91
2023/12/13 06:37:47;;;;;;;5.70;3.85;;;;;;;6.52;73.71;97791.25;4514504;31;33578;-90
2023/12/13 06:40:15;;;;;;;5.78;4.15;;;;;;;6.56;73.79;97795.56;4514310;31;34918;-91
2023/12/13 06:42:43;;;;;;;39.53;8.13;;;;;;;6.47;73.98;97796.34;4500017;31;33919;-92
2023/12/13 06:45:11;;;;;;;5.07;3.42;;;;;;;6.20;74.33;97789.28;4514386;31;33341;-91
2023/12/13 06:47:38;;;;;;;6.62;3.58;;;;;;;6.49;73.92;97793.78;4514298;31;33368;-91
2023/12/13 06:50:07;;;;;;;6.57;4.47;;;;;;;6.63;73.23;97792.19;4499540;31;33455;-91
2023/12/13 06:52:35;;;;;;;6.20;4.32;;;;;;;6.46;73.15;97789.47;4486272;31;33878;-91
2023/12/13 06:55:03;;;;;;;5.95;4.62;;;;;;;6.41;73.30;97793.75;4499566;31;33743;-91
2023/12/13 06:57:31;;;;;;;7.05;4.68;;;;;;;6.45;73.43;97792.03;4499490;31;32008;-91
2023/12/13 06:59:59;;;;;;;5.40;4.37;;;;;;;6.43;73.22;97789.44;4499260;31;32774;-91
2023/12/13 07:02:26;;;;;;;5.90;4.35;;;;;;;6.50;73.43;97791.22;4513770;31;33659;-91
2023/12/13 07:04:54;;;;;;;5.78;3.85;;;;;;;6.63;72.88;97797.31;4486448;31;33757;-91
2023/12/13 07:07:22;;;;;;;5.72;3.80;;;;;;;6.55;72.67;97788.66;4513906;31;33239;-92
2023/12/13 07:09:50;;;;;;;7.30;4.05;;;;;;;6.42;73.46;97787.72;4499618;31;33556;-91
2023/12/13 07:12:17;;;;;;;5.37;3.60;;;;;;;6.56;72.84;97780.97;4499553;31;34536;-90
2023/12/13 07:14:45;;;;;;;6.80;4.05;;;;;;;6.39;73.15;97786.84;4499171;31;34304;-90
2023/12/13 07:17:13;;;;;;;18.62;5.85;;;;;;;6.47;73.20;97788.63;4499454;31;34597;-92
2023/12/13 07:19:40;;;;;;;5.57;3.65;;;;;;;6.30;73.58;97785.94;4513719;31;34524;-92
2023/12/13 07:22:09;;;;;;;5.85;3.62;;;;;;;6.49;73.46;97793.78;4486248;31;33594;-91
2023/12/13 07:24:36;;;;;;;5.72;3.75;;;;;;;6.70;72.75;97788.75;4486282;31;34695;-91
2023/12/13 07:27:04;;;;;;;6.05;3.67;;;;;;;6.69;72.48;97781.88;4499071;31;33534;-91
2023/12/13 07:29:33;;;;;;;6.70;4.05;;;;;;;6.63;72.74;97779.31;4513559;31;34043;-91
2023/12/13 07:32:01;;;;;;;5.10;3.72;;;;;;;6.61;72.85;97783.56;4513514;31;33713;-90
2023/12/13 07:34:28;;;;;;;6.78;4.65;;;;;;;6.68;72.80;97784.47;4498872;31;32872;-91
2023/12/13 07:36:56;;;;;;;7.18;3.70;;;;;;;6.62;73.31;97787.84;4499057;31;33237;-90
2023/12/13 07:39:24;;;;;;;5.90;3.78;;;;;;;6.65;72.99;97782.72;4485992;31;32812;-91
2023/12/13 07:41:52;;;;;;;6.00;3.97;;;;;;;6.70;72.69;97783.59;4499331;31;33673;-91
2023/12/13 07:44:19;;;;;;;5.93;3.70;;;;;;;6.71;72.83;97785.34;4485590;31;34341;-90
2023/12/13 07:46:47;;;;;;;5.53;4.07;;;;;;;6.82;72.24;97775.97;4499052;31;32734;-90
2023/12/13 07:49:14;;;;;;;6.55;4.20;;;;;;;6.91;71.52;97771.72;4485790;31;32679;-90
2023/12/13 07:51:42;;;;;;;5.82;4.68;;;;;;;6.76;72.17;97775.94;4498534;31;34092;-90
2023/12/13 07:54:13;;;;;;;10.05;6.95;;;;;;;6.68;72.67;97767.31;4485703;31;33756;-91
2023/12/13 07:56:41;;;;;;;10.38;6.62;;;;;;;6.67;72.63;97768.16;4499132;31;33355;-91
2023/12/13 07:59:08;;;;;;;57.05;9.70;;;;;;;6.85;72.27;97753.63;4485352;31;33040;-91
2023/12/13 08:01:36;;;;;;;19.02;15.23;;;;;;;6.90;72.62;97751.97;4498726;31;32881;-91
2023/12/13 08:04:04;;;;;;;26.73;20.45;;;;;;;6.33;75.46;97752.50;4514413;31;34198;-90
2023/12/13 08:06:32;;;;;;;17.98;15.13;;;;;;;6.11;78.06;97753.19;4515388;31;33340;-91
2023/12/13 08:08:59;;;;;;;18.27;13.68;;;;;;;6.58;76.86;97744.91;4515403;31;34513;-91
2023/12/13 08:11:28;;;;;;;18.58;15.38;;;;;;;6.61;76.49;97746.66;4515383;31;33840;-91
2023/12/13 08:13:55;;;;;;;12.50;10.35;;;;;;;6.78;76.15;97745.00;4500439;31;32883;-91
2023/12/13 08:16:26;;;;;;;12.05;10.45;;;;;;;6.82;75.82;97747.63;4515687;31;33402;-90
2023/12/13 08:18:54;;;;;;;11.88;8.68;;;;;;;6.76;76.03;97746.75;4515432;31;33446;-91
2023/12/13 08:21:23;;;;;;;11.93;8.63;;;;;;;6.88;75.85;97736.47;4487571;31;34701;-91
2023/12/13 08:23:51;;;;;;;11.35;8.65;;;;;;;6.88;76.26;97749.38;4501116;31;33724;-92
2023/12/13 08:26:20;;;;;;;13.55;11.50;;;;;;;7.14;75.74;97743.47;4515436;31;34214;-91
2023/12/13 08:28:48;;;;;;;8.68;7.10;;;;;;;6.68;77.63;97751.00;4515232;31;34707;-92
2023/12/13 08:31:29;;;;;;;9.30;7.78;;;;;;;6.68;78.44;97740.69;4500862;31;32805;-91
2023/12/13 08:33:57;;;;;;;9.95;7.57;;;;;;;6.30;80.48;97741.31;4500742;31;34019;-91
2023/12/13 08:36:25;;;;;;;8.48;7.37;;;;;;;6.28;80.39;97740.44;4487755;31;32260;-92
2023/12/13 08:38:53;;;;;;;9.30;8.35;;;;;;;6.39;79.63;97745.66;4515039;31;34632;-91
2023/12/13 08:41:20;;;;;;;10.30;8.27;;;;;;;6.38;79.39;97752.53;4487250;31;33650;-92
2023/12/13 08:43:48;;;;;;;7.90;7.10;;;;;;;6.15;81.57;97762.66;4500731;31;34501;-91
2023/12/13 08:46:16;;;;;;;8.48;6.90;;;;;;;6.33;80.71;97752.50;4475111;31;32597;-92
2023/12/13 08:48:45;;;;;;;10.20;7.95;;;;;;;6.50;79.88;97752.59;4515322;31;33560;-91
2023/12/13 08:51:13;;;;;;;11.10;9.90;;;;;;;6.54;79.56;97758.63;4500965;31;33583;-92
2023/12/13 08:53:41;;;;;;;9.75;8.25;;;;;;;6.47;80.21;97750.00;4500913;31;34195;-91
2023/12/13 08:56:09;;;;;;;10.48;8.98;;;;;;;6.24;81.76;97751.56;4474590;31;32621;-90
2023/12/13 08:58:37;;;;;;;15.52;13.75;;;;;;;6.50;80.43;97749.16;4474778;31;32707;-91
2023/12/13 09:01:05;;;;;;;13.75;11.57;;;;;;;6.92;78.60;97752.81;4515150;31;34014;-90
2023/12/13 09:03:33;;;;;;;12.77;11.30;;;;;;;6.57;79.76;97745.78;4500884;31;33679;-90
2023/12/13 09:06:01;;;;;;;10.05;7.65;;;;;;;6.57;79.40;97750.94;4515254;31;34438;-91
2023/12/13 09:08:30;;;;;;;10.93;8.32;;;;;;;6.78;78.30;97737.28;4500873;31;33449;-91
2023/12/13 09:10:58;;;;;;;10.60;9.48;;;;;;;6.38;80.42;97738.78;4500650;31;33657;-91
2023/12/13 09:13:25;;;;;;;9.95;8.23;;;;;;;6.50;80.41;97729.41;4487745;31;32524;-90
2023/12/13 09:15:54;;;;;;;9.15;7.72;;;;;;;6.57;79.60;97733.75;4500392;31;33725;-91
2023/12/13 09:18:22;;;;;;;12.57;11.20;;;;;;;6.23;81.01;97735.25;4515163;31;33579;-91
2023/12/13 09:20:49;;;;;;;14.35;12.90;;;;;;;6.54;79.85;97733.72;4500479;31;33470;-92
2023/12/13 09:23:21;;;;;;;9.35;8.25;;;;;;;6.90;78.99;97733.94;4515016;31;33784;-91
2023/12/13 09:25:49;;;;;;;9.75;8.43;;;;;;;6.66;79.31;97730.34;4515247;31;34051;-91
2023/12/13 09:28:18;;;;;;;11.23;9.35;;;;;;;6.76;78.77;97729.56;4500848;31;33657;-91
2023/12/13 09:30:45;;;;;;;10.75;8.35;;;;;;;6.92;77.88;97748.53;4500513;31;33783;-91
2023/12/13 09:33:13;;;;;;;9.75;7.40;;;;;;;6.86;77.94;97745.94;4515173;31;34185;-91
2023/12/13 09:35:41;;;;;;;14.02;11.70;;;;;;;6.80;78.51;97743.31;4500717;31;34383;-92
2023/12/13 09:38:09;;;;;;;10.48;8.80;;;;;;;6.93;78.64;97741.66;4500540;31;33760;-91
2023/12/13 09:40:36;;;;;;;8.02;6.40;;;;;;;6.96;78.00;97746.81;4514965;31;33966;-91
2023/12/13 09:43:04;;;;;;;8.82;7.82;;;;;;;7.15;77.18;97734.88;4487297;31;33472;-91
2023/12/13 09:45:33;;;;;;;11.93;10.50;;;;;;;7.02;77.43;97739.13;4514592;31;34270;-91
2023/12/13 09:48:02;;;;;;;14.15;12.45;;;;;;;7.00;77.69;97740.81;4500874;31;33910;-92
2023/12/13 09:50:32;;;;;;;19.10;17.10;;;;;;;6.97;78.23;97746.84;4500419;31;33851;-91
2023/12/13 09:53:00;;;;;;;15.57;13.27;;;;;;;6.92;78.25;97740.78;4500311;31;34689;-91
2023/12/13 09:55:29;;;;;;;33.13;29.42;;;;;;;7.11;77.56;97744.31;4500577;31;34159;-91
2023/12/13 09:57:57;;;;;;;20.67;18.48;;;;;;;7.10;77.87;97745.16;4514587;31;33879;-92
2023/12/13 10:00:24;;;;;;;22.35;19.98;;;;;;;7.23;76.76;97734.03;4500386;31;33993;-91
2023/12/13 10:02:52;;;;;;;12.68;10.40;;;;;;;7.01;78.63;97745.16;4500527;31;34042;-91
2023/12/13 10:05:21;;;;;;;16.70;14.32;;;;;;;7.01;78.31;97743.44;4500206;31;32946;-91
2023/12/13 10:07:59;;;;;;;14.93;12.68;;;;;;;7.15;78.39;97740.88;4487656;31;33605;-91
2023/12/13 10:10:34;;;;;;;13.07;11.07;;;;;;;7.04;77.66;97750.28;4500418;31;34880;-91
2023/12/13 10:13:02;;;;;;;15.82;13.65;;;;;;;7.04;77.46;97746.00;4501090;31;34221;-91
2023/12/13 10:15:31;;;;;;;17.48;12.37;;;;;;;6.93;78.11;97744.22;4500496;31;34760;-91
2023/12/13 10:18:00;;;;;;;33.47;26.08;;;;;;;6.88;78.96;97730.47;4500580;31;33475;-91
2023/12/13 10:20:29;;;;;;;17.62;14.13;;;;;;;7.01;77.83;97727.09;4500373;31;34930;-91
2023/12/13 10:22:57;;;;;;;11.48;9.70;;;;;;;7.03;77.18;97725.38;4487027;31;35013;-90
2023/12/13 10:25:25;;;;;;;9.40;8.07;;;;;;;7.19;77.00;97716.84;4486157;31;32775;-91
2023/12/13 10:27:56;;;;;;;10.48;8.27;;;;;;;7.52;75.77;97710.03;4499931;31;34187;-91
2023/12/13 10:30:25;;;;;;;9.57;8.25;;;;;;;7.06;77.82;97710.78;4514441;31;33734;-91
2023/12/13 10:32:52;;;;;;;9.60;8.60;;;;;;;7.00;77.84;97699.59;4486616;31;32641;-91
2023/12/13 10:35:22;;;;;;;8.82;7.32;;;;;;;7.11;78.04;97697.91;4500003;31;34445;-91
2023/12/13 10:37:51;;;;;;;11.23;10.02;;;;;;;6.73;79.43;97711.50;4514290;31;33865;-90
2023/12/13 10:40:20;;;;;;;8.00;6.82;;;;;;;6.91;79.92;97694.44;4499959;31;33782;-91
2023/12/13 10:42:51;;;;;;;7.80;6.60;;;;;;;7.01;79.25;97698.75;4514513;31;33858;-91
2023/12/13 10:45:19;;;;;;;8.63;6.35;;;;;;;7.14;78.26;97697.94;4487136;31;34151;-91
2023/12/13 10:47:49;;;;;;;8.48;6.68;;;;;;;6.98;78.69;97702.19;4486840;31;34323;-91
2023/12/13 10:50:18;;;;;;;9.60;7.72;;;;;;;7.31;77.77;97685.97;4499853;31;33887;-91
2023/12/13 10:52:46;;;;;;;8.90;7.05;;;;;;;6.99;78.70;97690.16;4513988;31;33734;-91
2023/12/13 10:55:15;;;;;;;15.15;12.05;;;;;;;7.28;77.41;97683.37;4499997;31;33276;-91
2023/12/13 10:57:43;;;;;;;14.15;11.98;;;;;;;7.10;78.56;97672.16;4500091;31;34583;-91
2023/12/13 11:00:12;;;;;;;16.55;12.95;;;;;;;7.06;78.18;97661.84;4513978;31;34502;-91
2023/12/13 11:02:52;;;;;;;18.42;15.73;;;;;;;7.42;77.47;97667.03;4499758;31;34822;-91
2023/12/13 11:05:20;;;;;;;14.50;11.65;;;;;;;7.43;77.17;97669.63;4499678;31;33624;-91
2023/12/13 11:07:47;;;;;;;17.37;14.35;;;;;;;7.45;76.02;97659.31;4486285;31;33709;-91
2023/12/13 11:10:15;;;;;;;13.80;11.70;;;;;;;7.57;75.76;97652.44;4486457;31;33892;-91
2023/12/13 11:12:49;;;;;;;14.02;12.02;;;;;;;7.59;75.78;97652.44;4499417;31;34064;-91
2023/12/13 11:15:18;;;;;;;15.82;13.38;;;;;;;7.47;76.32;97652.47;4486571;31;32633;-91
2023/12/13 11:17:50;;;;;;;15.70;12.10;;;;;;;7.76;74.99;97645.56;4513893;31;34556;-91
2023/12/13 11:20:20;;;;;;;14.87;11.88;;;;;;;7.67;75.43;97643.00;4499526;31;33521;-92
2023/12/13 11:22:49;;;;;;;10.65;9.23;;;;;;;7.55;75.23;97637.84;4486218;31;32731;-91
2023/12/13 11:25:17;;;;;;;11.75;10.15;;;;;;;7.63;74.86;97636.13;4513701;31;34090;-91
2023/12/13 11:27:53;;;;;;;13.15;10.77;;;;;;;7.64;74.78;97640.41;4499506;31;33442;-92
2023/12/13 11:30:21;;;;;;;12.02;9.80;;;;;;;7.68;74.86;97626.66;4499541;31;33670;-91
2023/12/13 11:32:51;;;;;;;16.77;14.30;;;;;;;7.73;74.04;97614.63;4499166;31;34718;-91